createdAt,value
2022-09-12T00:01:23.326Z,99018.84
2022-09-12T00:03:55.061Z,99015.19
2022-09-12T00:06:24.724Z,99006.00
2022-09-12T00:08:53.916Z,99010.91
2022-09-12T00:11:20.417Z,99004.19
2022-09-12T00:13:47.147Z,99005.00
2022-09-12T00:16:22.425Z,98996.63
2022-09-12T00:18:49.157Z,99002.38
2022-09-12T00:21:17.764Z,98998.31
2022-09-12T00:23:45.499Z,98997.47
2022-09-12T00:26:12.460Z,99001.38
2022-09-12T00:28:40.135Z,98995.25
2022-09-12T00:31:09.390Z,98996.47
2022-09-12T00:33:36.005Z,98991.38
2022-09-12T00:36:15.413Z,98989.94
2022-09-12T00:38:43.714Z,98994.03
2022-09-12T00:41:15.672Z,98992.84
2022-09-12T00:43:44.744Z,98992.44
2022-09-12T00:46:17.112Z,98992.03
2022-09-12T00:48:52.132Z,98992.66
2022-09-12T00:51:19.937Z,98984.69
2022-09-12T00:53:48.702Z,98990.63
2022-09-12T00:56:17.718Z,98985.31
2022-09-12T00:58:51.097Z,98988.38
2022-09-12T01:01:17.991Z,98988.97
2022-09-12T01:03:44.803Z,98991.41
2022-09-12T01:06:17.571Z,98986.09
2022-09-12T01:08:46.797Z,98985.09
2022-09-12T01:11:15.875Z,98982.63
2022-09-12T01:13:44.052Z,98973.88
2022-09-12T01:16:10.814Z,98976.13
2022-09-12T01:19:01.275Z,98975.13
2022-09-12T01:21:43.756Z,98970.22
2022-09-12T01:24:19.415Z,98971.28
2022-09-12T01:27:14.796Z,98973.94
2022-09-12T01:30:05.878Z,98970.47
2022-09-12T01:32:46.929Z,98965.97
2022-09-12T01:35:28.743Z,98968.22
2022-09-12T01:38:06.263Z,98969.84
2022-09-12T01:40:38.546Z,98975.38
2022-09-12T01:43:31.830Z,98967.81
2022-09-12T01:46:13.768Z,98962.94
2022-09-12T01:48:47.945Z,98965.19
2022-09-12T01:51:27.772Z,98955.56
2022-09-12T01:54:06.947Z,98959.88
2022-09-12T01:56:38.098Z,98960.91
2022-09-12T01:59:10.661Z,98954.78
2022-09-12T02:01:46.753Z,98951.72
2022-09-12T02:04:18.990Z,98953.34
2022-09-12T02:06:52.227Z,98952.53
2022-09-12T02:09:26.323Z,98945.19
2022-09-12T02:11:58.516Z,98949.47
2022-09-12T02:14:29.634Z,98948.03
2022-09-12T02:17:01.367Z,98945.19
2022-09-12T02:19:37.317Z,98938.84
2022-09-12T02:22:05.736Z,98942.31
2022-09-12T02:24:39.334Z,98936.59
2022-09-12T02:27:16.623Z,98937.63
2022-09-12T02:29:44.903Z,98938.03
2022-09-12T02:32:15.485Z,98941.91
2022-09-12T02:34:59.909Z,98940.28
2022-09-12T02:37:38.760Z,98934.75
2022-09-12T02:40:07.089Z,98936.19
2022-09-12T02:42:33.606Z,98937.44
2022-09-12T02:45:00.158Z,98931.09
2022-09-12T02:47:32.354Z,98940.06
2022-09-12T02:49:59.632Z,98938.44
2022-09-12T02:52:28.657Z,98927.84
2022-09-12T02:54:57.213Z,98925.19
2022-09-12T02:57:24.315Z,98929.69
2022-09-12T02:59:58.985Z,98931.09
2022-09-12T03:02:53.713Z,98927.00
2022-09-12T03:05:29.285Z,98924.75
2022-09-12T03:08:22.540Z,98920.47
2022-09-12T03:11:06.094Z,98918.84
2022-09-12T03:13:32.492Z,98920.47
2022-09-12T03:15:58.874Z,98919.66
2022-09-12T03:18:46.288Z,98918.03
2022-09-12T03:21:42.316Z,98920.28
2022-09-12T03:24:25.026Z,98922.31
2022-09-12T03:26:54.859Z,98911.09
2022-09-12T03:29:23.695Z,98913.53
2022-09-12T03:31:58.228Z,98917.81
2022-09-12T03:34:26.919Z,98920.28
2022-09-12T03:36:57.271Z,98927.44
2022-09-12T03:39:26.378Z,98918.41
2022-09-12T03:41:54.082Z,98914.13
2022-09-12T03:44:20.748Z,98911.50
2022-09-12T03:46:47.245Z,98915.97
2022-09-12T03:49:13.915Z,98912.50
2022-09-12T03:51:40.752Z,98916.38
2022-09-12T03:54:07.289Z,98917.56
2022-09-12T03:56:34.475Z,98917.16
2022-09-12T03:59:01.339Z,98913.50
2022-09-12T04:01:27.955Z,98922.88
2022-09-12T04:03:54.468Z,98921.03
2022-09-12T04:06:22.992Z,98916.16
2022-09-12T04:08:52.331Z,98921.06
2022-09-12T04:11:20.645Z,98919.03
2022-09-12T04:13:47.385Z,98911.91
2022-09-12T04:16:15.793Z,98915.53
2022-09-12T04:18:43.833Z,98922.91
2022-09-12T04:21:21.865Z,98913.31
2022-09-12T04:23:48.915Z,98911.25
2022-09-12T04:26:17.428Z,98903.09
2022-09-12T04:28:46.262Z,98909.81
2022-09-12T04:31:17.816Z,98905.50
2022-09-12T04:33:45.337Z,98911.03
2022-09-12T04:36:17.426Z,98904.50
2022-09-12T04:38:46.307Z,98916.13
2022-09-12T04:41:15.522Z,98905.91
2022-09-12T04:43:43.181Z,98906.94
2022-09-12T04:46:11.536Z,98906.13
2022-09-12T04:48:38.826Z,98911.41
2022-09-12T04:51:23.433Z,98902.44
2022-09-12T04:53:52.686Z,98902.66
2022-09-12T04:56:20.067Z,98902.66
2022-09-12T04:58:46.873Z,98905.09
2022-09-12T05:01:19.224Z,98897.16
2022-09-12T05:03:47.103Z,98897.97
2022-09-12T05:06:22.244Z,98898.34
2022-09-12T05:08:48.886Z,98901.59
2022-09-12T05:11:24.102Z,98893.88
2022-09-12T05:13:51.927Z,98893.44
2022-09-12T05:16:19.642Z,98904.44
2022-09-12T05:18:47.245Z,98900.16
2022-09-12T05:21:16.964Z,98897.94
2022-09-12T05:23:43.935Z,98896.13
2022-09-12T05:26:14.748Z,98888.56
2022-09-12T05:28:41.931Z,98894.28
2022-09-12T05:31:12.901Z,98900.22
2022-09-12T05:33:41.500Z,98905.13
2022-09-12T05:36:11.637Z,98895.94
2022-09-12T05:38:38.122Z,98905.34
2022-09-12T05:41:07.712Z,98907.38
2022-09-12T05:43:34.898Z,98904.13
2022-09-12T05:46:10.359Z,98907.19
2022-09-12T05:48:38.064Z,98903.94
2022-09-12T05:51:07.604Z,98909.84
2022-09-12T05:53:35.159Z,98910.47
2022-09-12T05:56:06.815Z,98910.28
2022-09-12T05:58:34.695Z,98909.66
2022-09-12T06:01:03.533Z,98904.34
2022-09-12T06:03:30.248Z,98908.66
2022-09-12T06:05:57.033Z,98902.09
2022-09-12T06:08:23.621Z,98905.34
2022-09-12T06:10:50.144Z,98905.16
2022-09-12T06:13:16.626Z,98904.78
2022-09-12T06:15:43.162Z,98907.00
2022-09-12T06:18:09.661Z,98907.78
2022-09-12T06:20:36.962Z,98906.94
2022-09-12T06:23:03.467Z,98906.53
2022-09-12T06:25:30.009Z,98899.16
2022-09-12T06:27:56.829Z,98899.50
2022-09-12T06:30:25.442Z,98899.66
2022-09-12T06:32:52.233Z,98908.59
2022-09-12T06:35:18.999Z,98910.38
2022-09-12T06:37:45.683Z,98918.72
2022-09-12T06:40:12.494Z,98904.53
2022-09-12T06:42:39.120Z,98914.69
2022-09-12T06:45:06.290Z,98914.25
2022-09-12T06:47:32.986Z,98919.31
2022-09-12T06:49:59.523Z,98912.06
2022-09-12T06:52:26.462Z,98908.56
2022-09-12T06:54:52.986Z,98902.16
2022-09-12T06:57:19.552Z,98905.59
2022-09-12T06:59:46.156Z,98899.59
2022-09-12T07:02:12.746Z,98899.53
2022-09-12T07:04:39.332Z,98897.41
2022-09-12T07:07:05.956Z,98892.63
2022-09-12T07:09:32.610Z,98896.41
2022-09-12T07:11:59.352Z,98891.38
2022-09-12T07:14:26.131Z,98882.63
2022-09-12T07:16:52.982Z,98883.34
2022-09-12T07:19:19.605Z,98879.69
2022-09-12T07:21:46.320Z,98881.38
2022-09-12T07:24:12.994Z,98879.00
2022-09-12T07:26:40.562Z,98882.72
2022-09-12T07:29:34.891Z,98881.53
2022-09-12T07:31:55.703Z,98885.59
2022-09-12T07:34:22.714Z,98890.75
2022-09-12T07:36:49.529Z,98891.81
2022-09-12T07:39:16.233Z,98899.06
2022-09-12T07:41:42.996Z,98899.28
2022-09-12T07:44:09.659Z,98898.16
2022-09-12T07:46:36.428Z,98897.00
2022-09-12T07:49:03.315Z,98899.06
2022-09-12T07:51:30.912Z,98895.03
2022-09-12T07:53:58.119Z,98892.00
2022-09-12T07:56:30.176Z,98893.03
2022-09-12T07:58:58.993Z,98887.91
2022-09-12T08:01:26.214Z,98890.22
2022-09-12T08:03:58.049Z,98882.88
2022-09-12T08:06:26.895Z,98889.47
2022-09-12T08:08:55.479Z,98890.19
2022-09-12T08:11:23.632Z,98890.38
2022-09-12T08:13:55.296Z,98893.81
2022-09-12T08:16:27.583Z,98887.38
2022-09-12T08:18:54.598Z,98893.47
2022-09-12T08:21:23.797Z,98892.63
2022-09-12T08:23:55.567Z,98889.63
2022-09-12T08:26:23.417Z,98895.72
2022-09-12T08:28:50.200Z,98891.88
2022-09-12T08:31:20.195Z,98885.28
2022-09-12T08:33:47.064Z,98886.16
2022-09-12T08:36:22.655Z,98872.69
2022-09-12T08:38:51.459Z,98885.50
2022-09-12T08:41:17.873Z,98889.13
2022-09-12T08:44:09.528Z,98889.03
2022-09-12T08:47:07.848Z,98887.84
2022-09-12T08:49:53.025Z,98891.56
2022-09-12T08:52:26.974Z,98892.03
2022-09-12T08:54:56.289Z,98887.59
2022-09-12T08:57:24.226Z,98884.53
2022-09-12T08:59:51.445Z,98881.44
2022-09-12T09:02:21.019Z,98887.50
2022-09-12T09:04:52.640Z,98883.59
2022-09-12T09:07:47.388Z,98882.41
2022-09-12T09:10:38.071Z,98880.41
2022-09-12T09:13:51.444Z,98879.72
2022-09-12T09:16:46.367Z,98881.22
2022-09-12T09:19:18.915Z,98880.75
2022-09-12T09:21:54.537Z,98884.84
2022-09-12T09:24:27.077Z,98880.56
2022-09-12T09:27:01.974Z,98873.34
2022-09-12T09:29:36.760Z,98872.03
2022-09-12T09:32:10.153Z,98867.50
2022-09-12T09:34:39.064Z,98867.00
2022-09-12T09:37:14.396Z,98861.41
2022-09-12T09:39:53.366Z,98861.97
2022-09-12T09:42:25.774Z,98866.28
2022-09-12T09:44:54.883Z,98861.25
2022-09-12T09:47:21.679Z,98853.19
2022-09-12T09:49:48.316Z,98862.34
2022-09-12T09:52:17.911Z,98849.69
2022-09-12T09:54:53.197Z,98848.88
2022-09-12T09:57:40.127Z,98840.78
2022-09-12T10:00:22.025Z,98841.59
2022-09-12T10:03:26.881Z,98836.22
2022-09-12T10:05:57.063Z,98834.59
2022-09-12T10:08:28.718Z,98824.63
2022-09-12T10:11:16.449Z,98821.13
2022-09-12T10:13:54.573Z,98812.78
2022-09-12T10:16:29.046Z,98813.59
2022-09-12T10:18:58.151Z,98814.66
2022-09-12T10:21:41.383Z,98804.94
2022-09-12T10:24:26.353Z,98803.31
2022-09-12T10:26:57.157Z,98805.75
2022-09-12T10:29:32.079Z,98801.44
2022-09-12T10:32:03.253Z,98808.16
2022-09-12T10:34:35.906Z,98804.31
2022-09-12T10:37:07.892Z,98804.00
2022-09-12T10:39:36.274Z,98804.00
2022-09-12T10:42:05.491Z,98792.34
2022-09-12T10:44:34.710Z,98785.53
2022-09-12T10:47:21.048Z,98792.00
2022-09-12T10:49:47.681Z,98794.94
2022-09-12T10:52:25.119Z,98787.97
2022-09-12T10:54:52.155Z,98787.38
2022-09-12T10:57:25.037Z,98786.19
2022-09-12T11:00:13.688Z,98786.19
2022-09-12T11:02:50.990Z,98784.53
2022-09-12T11:05:36.569Z,98776.69
2022-09-12T11:08:43.731Z,98778.03
2022-09-12T11:11:18.548Z,98778.84
2022-09-12T11:13:58.197Z,98764.28
2022-09-12T11:16:43.075Z,98768.13
2022-09-12T11:19:32.009Z,98761.63
2022-09-12T11:22:26.787Z,98761.78
2022-09-12T11:25:17.759Z,98762.53
2022-09-12T11:28:17.808Z,98752.66
2022-09-12T11:31:03.207Z,98751.75
2022-09-12T11:33:50.577Z,98749.56
2022-09-12T11:36:48.202Z,98750.03
2022-09-12T11:39:17.243Z,98750.19
2022-09-12T11:41:57.003Z,98744.16
2022-09-12T11:44:40.147Z,98745.88
2022-09-12T11:47:13.469Z,98750.84
2022-09-12T11:49:49.685Z,98743.13
2022-09-12T11:52:21.973Z,98744.94
2022-09-12T11:55:03.912Z,98738.16
2022-09-12T11:57:54.185Z,98735.34
2022-09-12T12:00:32.233Z,98739.25
2022-09-12T12:03:08.891Z,98739.94
2022-09-12T12:06:26.438Z,98736.88
2022-09-12T12:08:53.200Z,98727.56
2022-09-12T12:11:36.963Z,98720.72
2022-09-12T12:14:18.740Z,98717.88
2022-09-12T12:16:46.095Z,98710.69
2022-09-12T12:19:15.670Z,98713.41
2022-09-12T12:21:47.018Z,98716.25
2022-09-12T12:24:15.637Z,98721.66
2022-09-12T12:27:00.283Z,98710.72
2022-09-12T12:29:41.572Z,98709.09
2022-09-12T12:32:09.934Z,98711.03
2022-09-12T12:34:47.007Z,98704.03
2022-09-12T12:37:19.549Z,98692.16
2022-09-12T12:39:53.838Z,98701.59
2022-09-12T12:42:35.475Z,98690.94
2022-09-12T12:45:31.291Z,98694.66
2022-09-12T12:48:14.413Z,98690.66
2022-09-12T12:50:40.944Z,98683.31
2022-09-12T12:53:24.895Z,98679.13
2022-09-12T12:55:54.596Z,98675.19
2022-09-12T12:58:27.125Z,98674.09
2022-09-12T13:01:17.079Z,98674.47
2022-09-12T13:03:54.497Z,98671.75
2022-09-12T13:06:37.433Z,98666.34
2022-09-12T13:09:30.395Z,98665.25
2022-09-12T13:12:05.143Z,98659.84
2022-09-12T13:14:47.018Z,98654.31
2022-09-12T13:17:26.115Z,98655.69
2022-09-12T13:20:26.112Z,98653.16
2022-09-12T13:22:51.782Z,98653.16
2022-09-12T13:25:32.471Z,98651.38
2022-09-12T13:28:04.143Z,98643.50
2022-09-12T13:30:36.610Z,98642.16
2022-09-12T13:33:16.552Z,98639.53
2022-09-12T13:35:57.547Z,98630.75
2022-09-12T13:38:48.976Z,98634.19
2022-09-12T13:41:37.205Z,98632.91
2022-09-12T13:44:08.479Z,98637.91
2022-09-12T13:46:35.431Z,98631.56
2022-09-12T13:49:11.378Z,98623.72
2022-09-12T13:51:38.291Z,98622.66
2022-09-12T13:54:05.823Z,98617.47
2022-09-12T13:56:32.697Z,98616.47
2022-09-12T13:59:02.431Z,98610.94
2022-09-12T14:01:46.825Z,98618.44
2022-09-12T14:04:38.674Z,98612.25
2022-09-12T14:07:17.472Z,98619.09
2022-09-12T14:09:47.186Z,98617.81
2022-09-12T14:12:22.117Z,98600.91
2022-09-12T14:14:51.025Z,98606.22
2022-09-12T14:17:23.533Z,98611.47
2022-09-12T14:19:52.330Z,98591.47
2022-09-12T14:22:19.126Z,98597.38
2022-09-12T14:24:50.569Z,98591.66
2022-09-12T14:27:26.735Z,98589.41
2022-09-12T14:30:01.833Z,98581.78
2022-09-12T14:32:28.403Z,98584.56
2022-09-12T14:35:19.043Z,98580.59
2022-09-12T14:37:51.008Z,98578.28
2022-09-12T14:40:23.554Z,98578.28
2022-09-12T14:42:52.711Z,98568.13
2022-09-12T14:45:28.798Z,98567.19
2022-09-12T14:47:56.027Z,98557.53
2022-09-12T14:50:29.644Z,98562.56
2022-09-12T14:53:21.040Z,98561.28
2022-09-12T14:55:59.093Z,98557.13
2022-09-12T14:58:28.211Z,98556.47
2022-09-12T15:00:55.974Z,98552.44
2022-09-12T15:03:49.436Z,98548.47
2022-09-12T15:06:28.243Z,98548.47
2022-09-12T15:08:56.952Z,98553.56
2022-09-12T15:11:23.789Z,98555.31
2022-09-12T15:13:50.736Z,98558.16
2022-09-12T15:16:17.658Z,98563.69
2022-09-12T15:18:44.330Z,98562.09
2022-09-12T15:21:15.874Z,98564.13
2022-09-12T15:23:53.815Z,98562.66
2022-09-12T15:26:27.403Z,98546.06
2022-09-12T15:28:54.007Z,98550.44
2022-09-12T15:31:25.235Z,98549.69
2022-09-12T15:33:52.142Z,98546.53
2022-09-12T15:36:21.388Z,98543.19
2022-09-12T15:38:49.077Z,98547.38
2022-09-12T15:41:25.174Z,98539.72
2022-09-12T15:43:51.676Z,98544.06
2022-09-12T15:46:19.360Z,98543.75
2022-09-12T15:48:46.203Z,98539.63
2022-09-12T15:51:18.668Z,98535.19
2022-09-12T15:53:46.102Z,98531.03
2022-09-12T15:56:16.676Z,98531.53
2022-09-12T15:58:57.646Z,98530.25
2022-09-12T16:01:26.558Z,98532.78
2022-09-12T16:03:53.274Z,98527.69
2022-09-12T16:06:19.842Z,98533.44
2022-09-12T16:08:46.646Z,98532.50
2022-09-12T16:11:24.657Z,98529.31
2022-09-12T16:13:55.411Z,98524.06
2022-09-12T16:16:22.045Z,98523.78
2022-09-12T16:18:48.824Z,98524.25
2022-09-12T16:21:15.950Z,98520.91
2022-09-12T16:23:43.894Z,98522.66
2022-09-12T16:26:10.546Z,98515.13
2022-09-12T16:28:37.321Z,98508.88
2022-09-12T16:31:06.317Z,98514.31
2022-09-12T16:33:33.674Z,98513.53
2022-09-12T16:36:06.113Z,98514.94
2022-09-12T16:38:33.798Z,98513.97
2022-09-12T16:41:05.751Z,98507.72
2022-09-12T16:43:33.795Z,98512.69
2022-09-12T16:46:11.881Z,98506.75
2022-09-12T16:48:48.051Z,98511.53
2022-09-12T16:51:23.880Z,98519.63
2022-09-12T16:53:50.981Z,98520.38
2022-09-12T16:56:17.555Z,98518.41
2022-09-12T16:58:44.978Z,98511.50
2022-09-12T17:01:14.904Z,98512.94
2022-09-12T17:03:41.858Z,98503.50
2022-09-12T17:06:14.003Z,98504.63
2022-09-12T17:08:43.623Z,98506.03
2022-09-12T17:11:12.512Z,98506.78
2022-09-12T17:14:02.646Z,98503.03
2022-09-12T17:16:27.902Z,98504.94
2022-09-12T17:18:55.188Z,98499.59
2022-09-12T17:21:22.256Z,98504.38
2022-09-12T17:23:49.476Z,98500.63
2022-09-12T17:26:16.319Z,98508.44
2022-09-12T17:28:43.904Z,98499.44
2022-09-12T17:31:13.760Z,98515.25
2022-09-12T17:33:41.268Z,98516.69
2022-09-12T17:36:11.111Z,98529.47
2022-09-12T17:38:39.654Z,98522.50
2022-09-12T17:41:15.998Z,98523.59
2022-09-12T17:43:43.881Z,98523.56
2022-09-12T17:46:10.488Z,98528.38
2022-09-12T17:48:37.246Z,98522.41
2022-09-12T17:51:14.238Z,98529.56
2022-09-12T17:53:41.655Z,98528.94
2022-09-12T17:56:09.934Z,98528.03
2022-09-12T17:58:37.064Z,98530.31
2022-09-12T18:01:28.987Z,98548.00
2022-09-12T18:03:57.135Z,98557.00
2022-09-12T18:06:24.579Z,98545.78
2022-09-12T18:08:51.263Z,98538.34
2022-09-12T18:11:17.825Z,98545.50
2022-09-12T18:13:44.536Z,98536.75
2022-09-12T18:16:12.825Z,98537.66
2022-09-12T18:18:39.777Z,98543.13
2022-09-12T18:21:08.369Z,98541.53
2022-09-12T18:23:35.388Z,98544.28
2022-09-12T18:26:04.868Z,98543.53
2022-09-12T18:28:35.921Z,98542.78
2022-09-12T18:31:02.966Z,98548.94
2022-09-12T18:33:29.613Z,98549.78
2022-09-12T18:35:56.251Z,98550.88
2022-09-12T18:38:22.773Z,98548.47
2022-09-12T18:40:49.266Z,98544.47
2022-09-12T18:43:15.856Z,98546.63
2022-09-12T18:45:42.365Z,98554.69
2022-09-12T18:48:09.330Z,98549.84
2022-09-12T18:50:35.808Z,98547.69
2022-09-12T18:53:02.279Z,98549.25
2022-09-12T18:55:31.790Z,98557.59
2022-09-12T18:57:58.251Z,98550.88
2022-09-12T19:00:24.744Z,98553.81
2022-09-12T19:02:51.385Z,98555.69
2022-09-12T19:05:18.202Z,98557.53
2022-09-12T19:07:44.753Z,98567.47
2022-09-12T19:10:11.940Z,98564.75
2022-09-12T19:12:38.417Z,98561.00
2022-09-12T19:15:05.196Z,98565.53
2022-09-12T19:17:31.724Z,98559.88
2022-09-12T19:19:58.328Z,98549.91
2022-09-12T19:22:24.784Z,98548.28
2022-09-12T19:24:51.297Z,98549.56
2022-09-12T19:27:17.812Z,98554.66
2022-09-12T19:29:44.413Z,98540.66
2022-09-12T19:32:11.243Z,98546.25
2022-09-12T19:34:37.697Z,98547.28
2022-09-12T19:37:04.537Z,98540.53
2022-09-12T19:39:31.478Z,98538.63
2022-09-12T19:41:58.137Z,98540.50
2022-09-12T19:44:27.025Z,98538.56
2022-09-12T19:46:53.519Z,98539.34
2022-09-12T19:49:19.958Z,98536.91
2022-09-12T19:51:46.451Z,98542.19
2022-09-12T19:54:13.051Z,98544.25
2022-09-12T19:56:39.575Z,98554.41
2022-09-12T19:59:06.062Z,98547.63
2022-09-12T20:01:33.086Z,98546.75
2022-09-12T20:03:59.617Z,98529.00
2022-09-12T20:06:27.306Z,98524.63
2022-09-12T20:08:54.698Z,98519.72
2022-09-12T20:11:23.292Z,98524.16
2022-09-12T20:13:50.090Z,98523.81
2022-09-12T20:16:23.230Z,98522.66
2022-09-12T20:18:58.281Z,98534.13
2022-09-12T20:21:31.620Z,98535.41
2022-09-12T20:24:10.231Z,98541.50
2022-09-12T20:26:36.871Z,98534.25
2022-09-12T20:29:05.292Z,98528.03
2022-09-12T20:31:33.328Z,98533.88
2022-09-12T20:33:59.978Z,98528.97
2022-09-12T20:36:26.864Z,98524.59
2022-09-12T20:38:59.838Z,98524.81
2022-09-12T20:41:28.942Z,98517.22
2022-09-12T20:43:56.940Z,98505.63
2022-09-12T20:46:24.855Z,98509.53
2022-09-12T20:48:51.790Z,98510.06
2022-09-12T20:51:19.354Z,98507.28
2022-09-12T20:53:46.171Z,98508.56
2022-09-12T20:56:12.801Z,98501.19
2022-09-12T20:58:43.527Z,98500.53
2022-09-12T21:01:12.299Z,98495.59
2022-09-12T21:03:40.316Z,98496.00
2022-09-12T21:06:08.029Z,98497.31
2022-09-12T21:08:36.043Z,98493.59
2022-09-12T21:11:03.324Z,98495.19
2022-09-12T21:13:30.197Z,98490.13
2022-09-12T21:16:01.768Z,98493.84
2022-09-12T21:18:28.653Z,98495.94
2022-09-12T21:20:55.878Z,98492.47
2022-09-12T21:23:23.768Z,98488.66
2022-09-12T21:25:52.559Z,98492.31
2022-09-12T21:28:20.158Z,98492.56
2022-09-12T21:30:50.623Z,98500.81
2022-09-12T21:33:19.079Z,98505.59
2022-09-12T21:35:47.291Z,98499.22
2022-09-12T21:38:18.554Z,98497.91
2022-09-12T21:40:45.787Z,98494.41
2022-09-12T21:43:13.083Z,98500.56
2022-09-12T21:45:40.475Z,98505.91
2022-09-12T21:48:07.746Z,98508.50
2022-09-12T21:50:34.563Z,98509.00
2022-09-12T21:53:01.301Z,98515.41
2022-09-12T21:55:27.948Z,98518.31
2022-09-12T21:57:55.299Z,98521.94
2022-09-12T22:00:22.758Z,98526.97
2022-09-12T22:02:49.868Z,98517.81
2022-09-12T22:05:17.182Z,98514.47
2022-09-12T22:07:43.868Z,98513.25
2022-09-12T22:10:10.881Z,98508.41
2022-09-12T22:12:37.551Z,98510.19
2022-09-12T22:15:22.875Z,98505.31
2022-09-12T22:17:51.213Z,98502.56
2022-09-12T22:20:17.883Z,98500.03
2022-09-12T22:23:03.057Z,98498.91
2022-09-12T22:25:29.669Z,98490.78
2022-09-12T22:27:56.311Z,98489.88
2022-09-12T22:30:23.428Z,98483.97
2022-09-12T22:32:51.124Z,98480.47
2022-09-12T22:35:18.419Z,98483.16
2022-09-12T22:37:46.577Z,98487.94
2022-09-12T22:40:13.218Z,98486.78
2022-09-12T22:42:39.745Z,98478.91
2022-09-12T22:45:07.641Z,98476.16
2022-09-12T22:47:34.110Z,98474.44
2022-09-12T22:50:00.632Z,98482.69
2022-09-12T22:52:27.146Z,98478.41
2022-09-12T22:54:53.747Z,98483.75
2022-09-12T22:57:20.194Z,98479.44
2022-09-12T22:59:46.737Z,98480.25
2022-09-12T23:02:13.304Z,98480.25
2022-09-12T23:04:40.005Z,98482.81
2022-09-12T23:07:06.581Z,98478.78
2022-09-12T23:09:35.398Z,98478.44
2022-09-12T23:12:02.444Z,98478.44
2022-09-12T23:14:28.916Z,98476.00
2022-09-12T23:16:55.563Z,98482.03
2022-09-12T23:19:22.115Z,98483.81
2022-09-12T23:21:48.712Z,98486.38
2022-09-12T23:24:15.361Z,98488.44
2022-09-12T23:26:41.877Z,98474.31
2022-09-12T23:29:09.207Z,98485.22
2022-09-12T23:31:36.261Z,98480.91
2022-09-12T23:34:05.815Z,98473.41
2022-09-12T23:36:33.426Z,98472.25
2022-09-12T23:39:00.004Z,98462.31
2022-09-12T23:41:26.641Z,98456.84
2022-09-12T23:43:53.190Z,98462.41
2022-09-12T23:46:20.620Z,98466.34
2022-09-12T23:48:48.095Z,98464.97
2022-09-12T23:51:15.138Z,98458.50
2022-09-12T23:53:42.010Z,98446.69
2022-09-12T23:56:08.825Z,98446.91
2022-09-12T23:58:35.366Z,98453.72
